createdAt,value
2018-09-17T00:01:37.601Z,13.57
2018-09-17T00:04:06.676Z,13.56
2018-09-17T00:06:35.449Z,13.54
2018-09-17T00:09:04.317Z,13.52
2018-09-17T00:11:33.388Z,13.51
2018-09-17T00:14:02.654Z,13.48
2018-09-17T00:16:32.027Z,13.45
2018-09-17T00:19:01.030Z,13.42
2018-09-17T00:21:30.060Z,13.38
2018-09-17T00:23:59.166Z,13.36
2018-09-17T00:26:27.901Z,13.32
2018-09-17T00:28:56.681Z,13.31
2018-09-17T00:31:25.443Z,13.29
2018-09-17T00:33:54.482Z,13.26
2018-09-17T00:36:23.588Z,13.20
2018-09-17T00:38:52.442Z,13.18
2018-09-17T00:41:21.226Z,13.16
2018-09-17T00:43:50.764Z,13.12
2018-09-17T00:46:19.526Z,13.09
2018-09-17T00:48:48.825Z,13.07
2018-09-17T00:51:18.283Z,13.05
2018-09-17T00:53:47.104Z,13.02
2018-09-17T00:56:15.860Z,13.02
2018-09-17T00:58:45.233Z,13.00
2018-09-17T01:01:14.035Z,12.95
2018-09-17T01:03:43.294Z,12.91
2018-09-17T01:06:12.039Z,12.91
2018-09-17T01:08:40.765Z,12.91
2018-09-17T01:11:09.635Z,12.91
2018-09-17T01:13:38.699Z,12.89
2018-09-17T01:16:08.058Z,12.86
2018-09-17T01:18:36.775Z,12.82
2018-09-17T01:21:05.988Z,12.79
2018-09-17T01:23:34.990Z,12.76
2018-09-17T01:26:03.742Z,12.75
2018-09-17T01:28:32.514Z,12.75
2018-09-17T01:31:01.291Z,12.73
2018-09-17T01:33:30.010Z,12.73
2018-09-17T01:35:59.033Z,12.71
2018-09-17T01:38:29.175Z,12.68
2018-09-17T01:40:58.821Z,12.65
2018-09-17T01:43:27.914Z,12.64
2018-09-17T01:45:57.255Z,12.59
2018-09-17T01:48:26.497Z,12.59
2018-09-17T01:50:55.775Z,12.56
2018-09-17T01:53:25.140Z,12.55
2018-09-17T01:55:54.697Z,12.52
2018-09-17T01:58:23.503Z,12.51
2018-09-17T02:00:52.509Z,12.48
2018-09-17T02:03:21.242Z,12.48
2018-09-17T02:05:49.951Z,12.46
2018-09-17T02:08:18.673Z,12.45
2018-09-17T02:10:47.443Z,12.41
2018-09-17T02:13:16.411Z,12.38
2018-09-17T02:15:45.114Z,12.36
2018-09-17T02:18:13.868Z,12.34
2018-09-17T02:20:43.329Z,12.33
2018-09-17T02:23:18.616Z,12.33
2018-09-17T02:25:47.909Z,12.32
2018-09-17T02:28:17.175Z,12.31
2018-09-17T02:30:45.920Z,12.28
2018-09-17T02:33:15.296Z,12.25
2018-09-17T02:35:44.821Z,12.21
2018-09-17T02:38:14.523Z,12.20
2018-09-17T02:40:43.574Z,12.19
2018-09-17T02:43:12.652Z,12.17
2018-09-17T02:45:41.383Z,12.17
2018-09-17T02:48:10.455Z,12.13
2018-09-17T02:50:39.762Z,12.13
2018-09-17T02:53:08.525Z,12.11
2018-09-17T02:55:37.819Z,12.10
2018-09-17T02:58:07.208Z,12.10
2018-09-17T03:00:36.258Z,12.09
2018-09-17T03:03:05.027Z,12.06
2018-09-17T03:05:33.803Z,12.03
2018-09-17T03:08:02.810Z,12.03
2018-09-17T03:10:32.070Z,12.00
2018-09-17T03:13:01.055Z,11.97
2018-09-17T03:15:40.828Z,11.96
2018-09-17T03:18:10.247Z,11.94
2018-09-17T03:20:39.050Z,11.93
2018-09-17T03:23:07.758Z,11.93
2018-09-17T03:25:36.850Z,11.87
2018-09-17T03:28:05.986Z,11.80
2018-09-17T03:30:34.712Z,11.79
2018-09-17T03:33:04.224Z,11.79
2018-09-17T03:35:33.011Z,11.80
2018-09-17T03:38:15.822Z,11.81
2018-09-17T03:40:45.007Z,11.82
2018-09-17T03:43:14.034Z,11.82
2018-09-17T03:45:42.807Z,11.80
2018-09-17T03:48:11.975Z,11.78
2018-09-17T03:50:40.993Z,11.78
2018-09-17T03:53:10.055Z,11.78
2018-09-17T03:55:39.231Z,11.79
2018-09-17T03:58:08.045Z,11.76
2018-09-17T04:00:37.227Z,11.72
2018-09-17T04:03:06.396Z,11.72
2018-09-17T04:05:35.611Z,11.71
2018-09-17T04:08:04.914Z,11.70
2018-09-17T04:10:33.731Z,11.70
2018-09-17T04:13:02.479Z,11.71
2018-09-17T04:15:31.208Z,11.70
2018-09-17T04:18:00.857Z,11.70
2018-09-17T04:20:29.888Z,11.68
2018-09-17T04:22:58.813Z,11.66
2018-09-17T04:25:27.972Z,11.66
2018-09-17T04:27:57.256Z,11.63
2018-09-17T04:30:25.970Z,11.63
2018-09-17T04:32:55.062Z,11.63
2018-09-17T04:35:23.789Z,11.61
2018-09-17T04:37:52.578Z,11.61
2018-09-17T04:40:21.683Z,11.59
2018-09-17T04:42:50.731Z,11.59
2018-09-17T04:45:19.785Z,11.58
2018-09-17T04:47:48.519Z,11.57
2018-09-17T04:50:17.523Z,11.56
2018-09-17T04:52:46.299Z,11.55
2018-09-17T04:55:15.019Z,11.53
2018-09-17T04:57:44.436Z,11.49
2018-09-17T05:00:13.246Z,11.45
2018-09-17T05:02:42.078Z,11.41
2018-09-17T05:05:11.447Z,11.38
2018-09-17T05:07:40.182Z,11.37
2018-09-17T05:10:08.961Z,11.34
2018-09-17T05:12:38.085Z,11.34
2018-09-17T05:15:07.350Z,11.32
2018-09-17T05:17:36.441Z,11.26
2018-09-17T05:20:05.648Z,11.20
2018-09-17T05:22:34.362Z,11.15
2018-09-17T05:25:03.093Z,11.16
2018-09-17T05:27:32.376Z,11.15
2018-09-17T05:30:01.102Z,11.14
2018-09-17T05:32:30.221Z,11.13
2018-09-17T05:34:58.985Z,11.12
2018-09-17T05:37:28.619Z,11.12
2018-09-17T05:39:57.675Z,11.13
2018-09-17T05:42:26.726Z,11.17
2018-09-17T05:44:56.150Z,11.18
2018-09-17T05:47:25.090Z,11.21
2018-09-17T05:49:53.839Z,11.23
2018-09-17T05:52:22.919Z,11.22
2018-09-17T05:54:51.833Z,11.20
2018-09-17T05:57:20.728Z,11.21
2018-09-17T05:59:49.466Z,11.23
2018-09-17T06:02:18.580Z,11.25
2018-09-17T06:04:47.368Z,11.28
2018-09-17T06:07:16.203Z,11.31
2018-09-17T06:09:45.063Z,11.34
2018-09-17T06:12:14.172Z,11.38
2018-09-17T06:14:43.335Z,11.45
2018-09-17T06:17:13.330Z,11.50
2018-09-17T06:19:42.333Z,11.55
2018-09-17T06:22:11.341Z,11.63
2018-09-17T06:24:40.720Z,11.75
2018-09-17T06:27:09.526Z,11.87
2018-09-17T06:29:38.718Z,12.00
2018-09-17T06:32:07.454Z,12.13
2018-09-17T06:34:36.791Z,12.28
2018-09-17T06:37:06.155Z,12.44
2018-09-17T06:39:34.880Z,12.59
2018-09-17T06:42:03.988Z,12.74
2018-09-17T06:44:32.814Z,12.87
2018-09-17T06:47:01.944Z,13.01
2018-09-17T06:49:31.025Z,13.16
2018-09-17T06:52:00.159Z,13.30
2018-09-17T06:54:29.257Z,13.43
2018-09-17T06:56:58.575Z,13.56
2018-09-17T06:59:27.614Z,13.66
2018-09-17T07:01:56.495Z,13.80
2018-09-17T07:04:25.539Z,13.92
2018-09-17T07:06:54.825Z,14.04
2018-09-17T07:09:23.630Z,14.18
2018-09-17T07:11:52.510Z,14.36
2018-09-17T07:14:21.529Z,14.51
2018-09-17T07:16:50.691Z,14.67
2018-09-17T07:19:19.703Z,14.79
2018-09-17T07:21:48.775Z,14.94
2018-09-17T07:24:17.831Z,15.04
2018-09-17T07:26:46.539Z,15.12
2018-09-17T07:29:15.307Z,15.22
2018-09-17T07:31:50.247Z,15.33
2018-09-17T07:34:19.417Z,15.42
2018-09-17T07:36:48.689Z,15.50
2018-09-17T07:39:17.509Z,15.59
2018-09-17T07:41:46.482Z,15.66
2018-09-17T07:44:15.246Z,15.78
2018-09-17T07:46:44.005Z,15.91
2018-09-17T07:49:13.001Z,16.00
2018-09-17T07:51:41.834Z,16.14
2018-09-17T07:54:10.995Z,16.28
2018-09-17T07:56:39.801Z,16.42
2018-09-17T07:59:08.542Z,16.57
2018-09-17T08:01:37.950Z,16.77
2018-09-17T08:04:06.950Z,16.96
2018-09-17T08:06:35.830Z,17.16
2018-09-17T08:09:07.310Z,17.35
2018-09-17T08:11:36.501Z,17.51
2018-09-17T08:14:05.300Z,17.63
2018-09-17T08:16:34.327Z,17.76
2018-09-17T08:19:03.194Z,17.85
2018-09-17T08:21:31.920Z,17.95
2018-09-17T08:24:01.668Z,18.07
2018-09-17T08:26:31.376Z,18.22
2018-09-17T08:29:00.134Z,18.37
2018-09-17T08:31:28.945Z,18.49
2018-09-17T08:33:57.770Z,18.63
2018-09-17T08:36:26.517Z,18.72
2018-09-17T08:38:55.313Z,18.84
2018-09-17T08:41:24.693Z,19.00
2018-09-17T08:43:54.123Z,19.16
2018-09-17T08:46:23.121Z,19.28
2018-09-17T08:48:52.154Z,19.37
2018-09-17T08:51:20.899Z,19.49
2018-09-17T08:53:49.711Z,19.65
2018-09-17T08:56:26.582Z,19.82
2018-09-17T08:58:59.838Z,19.99
2018-09-17T09:02:33.572Z,20.13
2018-09-17T09:05:07.382Z,20.34
2018-09-17T09:07:37.149Z,20.47
2018-09-17T09:10:12.103Z,20.58
2018-09-17T09:12:41.956Z,20.68
2018-09-17T09:15:16.161Z,20.68
2018-09-17T09:17:45.162Z,20.79
2018-09-17T09:20:14.192Z,20.90
2018-09-17T09:22:43.206Z,21.04
2018-09-17T09:25:12.386Z,21.21
2018-09-17T09:27:42.124Z,21.37
2018-09-17T09:30:10.856Z,21.50
2018-09-17T09:32:40.347Z,21.60
2018-09-17T09:35:09.349Z,21.61
2018-09-17T09:37:38.628Z,21.65
2018-09-17T09:40:07.409Z,21.66
2018-09-17T09:42:36.594Z,21.66
2018-09-17T09:45:05.415Z,21.75
2018-09-17T09:47:34.543Z,21.87
2018-09-17T09:50:03.575Z,21.99
2018-09-17T09:52:33.376Z,22.09
2018-09-17T09:55:02.445Z,22.24
2018-09-17T09:57:31.600Z,22.36
2018-09-17T10:00:00.754Z,22.51
2018-09-17T10:02:31.523Z,22.57
2018-09-17T10:05:00.864Z,22.60
2018-09-17T10:07:29.974Z,22.62
2018-09-17T10:11:05.422Z,22.73
2018-09-17T10:13:39.571Z,22.94
2018-09-17T10:16:13.846Z,23.15
2018-09-17T10:18:48.012Z,23.31
2018-09-17T10:21:17.041Z,23.45
2018-09-17T10:23:46.942Z,23.48
2018-09-17T10:26:16.516Z,23.52
2018-09-17T10:28:45.832Z,23.59
2018-09-17T10:31:14.710Z,23.75
2018-09-17T10:33:43.517Z,23.92
2018-09-17T10:36:12.588Z,24.04
2018-09-17T10:38:42.335Z,24.14
2018-09-17T10:41:11.343Z,24.22
2018-09-17T10:43:40.128Z,24.11
2018-09-17T10:46:09.218Z,24.25
2018-09-17T10:48:38.006Z,24.45
2018-09-17T10:51:06.887Z,24.64
2018-09-17T10:53:35.908Z,24.80
2018-09-17T10:56:05.203Z,25.01
2018-09-17T10:58:34.549Z,25.16
2018-09-17T11:01:03.525Z,25.20
2018-09-17T11:03:32.886Z,25.32
2018-09-17T11:06:02.202Z,25.44
2018-09-17T11:08:31.556Z,25.35
2018-09-17T11:11:00.565Z,25.35
2018-09-17T11:13:29.553Z,25.42
2018-09-17T11:15:58.902Z,25.51
2018-09-17T11:18:28.054Z,25.67
2018-09-17T11:20:56.991Z,25.89
2018-09-17T11:23:26.022Z,26.11
2018-09-17T11:25:55.218Z,26.39
2018-09-17T11:28:24.323Z,26.59
2018-09-17T11:30:53.448Z,26.71
2018-09-17T11:33:22.190Z,26.80
2018-09-17T11:35:51.669Z,26.68
2018-09-17T11:38:23.486Z,26.59
2018-09-17T11:40:53.048Z,26.70
2018-09-17T11:43:21.901Z,26.55
2018-09-17T11:45:50.969Z,26.71
2018-09-17T11:48:19.857Z,26.79
2018-09-17T11:50:48.946Z,27.04
2018-09-17T11:53:18.893Z,27.21
2018-09-17T11:55:48.293Z,27.29
2018-09-17T11:58:17.340Z,27.39
2018-09-17T12:00:51.287Z,27.58
2018-09-17T12:03:25.144Z,27.68
2018-09-17T12:06:04.385Z,27.92
2018-09-17T12:08:33.750Z,27.91
2018-09-17T12:11:02.553Z,27.98
2018-09-17T12:13:31.585Z,28.03
2018-09-17T12:16:00.377Z,28.17
2018-09-17T12:18:29.628Z,28.24
2018-09-17T12:20:59.009Z,28.27
2018-09-17T12:23:28.386Z,28.36
2018-09-17T12:25:57.441Z,28.45
2018-09-17T12:28:26.226Z,28.34
2018-09-17T12:37:55.996Z,28.41
2018-09-17T12:40:25.951Z,28.54
2018-09-17T12:42:54.825Z,28.75
2018-09-17T12:45:24.436Z,29.00
2018-09-17T12:47:54.018Z,29.13
2018-09-17T12:50:23.140Z,29.19
2018-09-17T12:52:52.208Z,29.33
2018-09-17T12:55:21.007Z,29.54
2018-09-17T12:57:49.758Z,29.57
2018-09-17T13:00:18.770Z,29.58
2018-09-17T13:02:47.761Z,29.65
2018-09-17T13:05:16.618Z,29.66
2018-09-17T13:07:45.738Z,29.77
2018-09-17T13:10:14.827Z,29.69
2018-09-17T13:12:43.928Z,29.86
2018-09-17T13:15:12.739Z,30.07
2018-09-17T13:17:42.111Z,30.14
2018-09-17T13:20:11.119Z,30.27
2018-09-17T13:22:40.270Z,30.38
2018-09-17T13:25:09.294Z,30.38
2018-09-17T13:27:38.088Z,30.45
2018-09-17T13:30:07.274Z,30.58
2018-09-17T13:32:36.653Z,30.81
2018-09-17T13:35:05.781Z,30.92
2018-09-17T13:37:34.951Z,30.73
2018-09-17T13:40:03.751Z,30.75
2018-09-17T13:42:32.601Z,30.82
2018-09-17T13:45:01.396Z,30.74
2018-09-17T13:47:30.395Z,30.88
2018-09-17T13:49:59.609Z,30.83
2018-09-17T13:52:28.942Z,30.78
2018-09-17T13:54:57.703Z,30.83
2018-09-17T13:57:26.522Z,30.82
2018-09-17T13:59:55.357Z,30.80
2018-09-17T14:02:24.114Z,30.91
2018-09-17T14:04:53.166Z,31.09
2018-09-17T14:07:22.217Z,30.95
2018-09-17T14:09:51.003Z,30.80
2018-09-17T14:12:19.719Z,30.84
2018-09-17T14:14:48.710Z,30.98
2018-09-17T14:17:17.484Z,31.08
2018-09-17T14:19:46.871Z,31.10
2018-09-17T14:22:15.943Z,30.97
2018-09-17T14:24:44.683Z,30.94
2018-09-17T14:27:14.205Z,30.93
2018-09-17T14:29:43.277Z,30.89
2018-09-17T14:32:17.250Z,30.98
2018-09-17T14:34:46.408Z,30.94
2018-09-17T14:37:16.068Z,30.83
2018-09-17T14:39:44.906Z,30.67
2018-09-17T14:42:14.024Z,30.61
2018-09-17T14:44:43.136Z,30.56
2018-09-17T14:47:12.225Z,30.50
2018-09-17T14:49:41.453Z,30.60
2018-09-17T14:52:10.576Z,30.60
2018-09-17T14:54:39.469Z,30.75
2018-09-17T14:57:08.140Z,30.75
2018-09-17T14:59:37.420Z,30.78
2018-09-17T15:02:06.505Z,30.89
2018-09-17T15:04:35.357Z,30.98
2018-09-17T15:07:04.126Z,31.17
2018-09-17T15:09:32.884Z,31.11
2018-09-17T15:12:02.513Z,31.09
2018-09-17T15:14:31.344Z,31.04
2018-09-17T15:17:00.501Z,31.01
2018-09-17T15:19:29.279Z,30.98
2018-09-17T15:21:58.092Z,31.02
2018-09-17T15:24:26.965Z,30.85
2018-09-17T15:26:55.716Z,30.78
2018-09-17T15:29:24.748Z,30.65
2018-09-17T15:31:53.489Z,30.23
2018-09-17T15:34:22.298Z,30.00
2018-09-17T15:36:51.332Z,29.86
2018-09-17T15:39:21.187Z,29.62
2018-09-17T15:41:50.276Z,29.43
2018-09-17T15:44:19.104Z,29.34
2018-09-17T15:46:48.102Z,29.29
2018-09-17T15:49:17.113Z,29.24
2018-09-17T15:51:45.995Z,29.18
2018-09-17T15:54:15.090Z,28.95
2018-09-17T15:56:44.080Z,28.84
2018-09-17T15:59:12.984Z,28.70
2018-09-17T16:01:42.200Z,28.60
2018-09-17T16:04:11.231Z,28.48
2018-09-17T16:06:40.809Z,28.22
2018-09-17T16:09:09.522Z,28.06
2018-09-17T16:11:38.576Z,27.91
2018-09-17T16:14:08.561Z,27.85
2018-09-17T16:16:37.264Z,27.77
2018-09-17T16:19:06.145Z,27.66
2018-09-17T16:21:35.217Z,27.57
2018-09-17T16:24:04.647Z,27.46
2018-09-17T16:26:33.682Z,27.38
2018-09-17T16:29:02.420Z,27.36
2018-09-17T16:31:31.473Z,27.32
2018-09-17T16:34:00.213Z,27.35
2018-09-17T16:36:29.623Z,27.36
2018-09-17T16:38:58.926Z,27.35
2018-09-17T16:41:27.711Z,27.37
2018-09-17T16:43:56.458Z,27.38
2018-09-17T16:46:25.578Z,27.37
2018-09-17T16:48:54.664Z,27.20
2018-09-17T16:51:23.396Z,27.07
2018-09-17T16:53:52.343Z,27.01
2018-09-17T16:56:21.526Z,26.96
2018-09-17T16:58:50.590Z,26.88
2018-09-17T17:01:19.302Z,26.82
2018-09-17T17:03:48.610Z,26.70
2018-09-17T17:06:18.277Z,26.58
2018-09-17T17:08:49.321Z,26.48
2018-09-17T17:11:23.274Z,26.36
2018-09-17T17:13:53.775Z,26.26
2018-09-17T17:16:28.510Z,26.16
2018-09-17T17:19:04.849Z,26.07
2018-09-17T17:21:34.191Z,25.96
2018-09-17T17:24:05.157Z,25.87
2018-09-17T17:26:34.793Z,25.78
2018-09-17T17:29:03.818Z,25.67
2018-09-17T17:31:32.617Z,25.57
2018-09-17T17:34:02.380Z,25.48
2018-09-17T17:36:31.090Z,25.40
2018-09-17T17:39:00.207Z,25.30
2018-09-17T17:41:29.305Z,25.19
2018-09-17T17:43:59.245Z,25.06
2018-09-17T17:46:28.267Z,24.93
2018-09-17T17:48:57.036Z,24.81
2018-09-17T17:51:26.827Z,24.67
2018-09-17T17:53:56.938Z,24.52
2018-09-17T17:56:28.963Z,24.39
2018-09-17T17:58:57.686Z,24.26
2018-09-17T18:01:28.213Z,24.13
2018-09-17T18:03:57.472Z,23.98
2018-09-17T18:06:26.230Z,23.85
2018-09-17T18:08:55.078Z,23.73
2018-09-17T18:11:24.017Z,23.58
2018-09-17T18:13:53.443Z,23.46
2018-09-17T18:16:26.251Z,23.32
2018-09-17T18:18:55.503Z,23.16
2018-09-17T18:21:24.254Z,23.05
2018-09-17T18:23:53.661Z,22.92
2018-09-17T18:26:22.408Z,22.81
2018-09-17T18:28:51.758Z,22.67
2018-09-17T18:31:20.487Z,22.55
2018-09-17T18:33:49.269Z,22.45
2018-09-17T18:36:18.392Z,22.33
2018-09-17T18:38:47.493Z,22.17
2018-09-17T18:41:16.252Z,22.06
2018-09-17T18:43:45.418Z,21.95
2018-09-17T18:46:14.471Z,21.83
2018-09-17T18:48:43.329Z,21.74
2018-09-17T18:51:12.684Z,21.65
2018-09-17T18:53:41.765Z,21.54
2018-09-17T18:56:10.844Z,21.44
2018-09-17T18:58:39.586Z,21.29
2018-09-17T19:01:08.554Z,21.16
2018-09-17T19:03:37.705Z,21.07
2018-09-17T19:06:06.789Z,20.94
2018-09-17T19:08:35.572Z,20.84
2018-09-17T19:11:04.654Z,20.69
2018-09-17T19:13:34.181Z,20.58
2018-09-17T19:16:02.942Z,20.46
2018-09-17T19:18:31.689Z,20.34
2018-09-17T19:21:00.940Z,20.25
2018-09-17T19:23:35.189Z,20.17
2018-09-17T19:26:04.061Z,20.07
2018-09-17T19:28:37.978Z,19.95
2018-09-17T19:31:07.302Z,19.86
2018-09-17T19:33:36.292Z,19.81
2018-09-17T19:36:05.308Z,19.74
2018-09-17T19:38:39.305Z,19.67
2018-09-17T19:41:08.657Z,19.59
2018-09-17T19:43:37.880Z,19.48
2018-09-17T19:46:11.924Z,19.39
2018-09-17T19:48:40.774Z,19.28
2018-09-17T19:52:13.506Z,19.21
2018-09-17T19:54:42.705Z,19.08
2018-09-17T19:57:16.567Z,18.96
2018-09-17T19:59:56.491Z,18.87
2018-09-17T20:02:25.630Z,18.78
2018-09-17T20:04:59.822Z,18.69
2018-09-17T20:07:29.104Z,18.60
2018-09-17T20:09:58.602Z,18.54
2018-09-17T20:12:27.751Z,18.45
2018-09-17T20:14:56.507Z,18.36
2018-09-17T20:17:25.954Z,18.29
2018-09-17T20:19:54.715Z,18.22
2018-09-17T20:22:23.547Z,18.16
2018-09-17T20:24:52.350Z,18.10
2018-09-17T20:27:21.075Z,18.02
2018-09-17T20:29:50.211Z,17.95
2018-09-17T20:32:19.211Z,17.89
2018-09-17T20:34:48.064Z,17.83
2018-09-17T20:37:16.924Z,17.77
2018-09-17T20:39:45.693Z,17.69
2018-09-17T20:42:14.516Z,17.65
2018-09-17T20:44:43.426Z,17.57
2018-09-17T20:47:12.385Z,17.51
2018-09-17T20:49:41.934Z,17.47
2018-09-17T20:52:11.314Z,17.44
2018-09-17T20:54:40.139Z,17.42
2018-09-17T20:57:09.206Z,17.36
2018-09-17T20:59:37.916Z,17.31
2018-09-17T21:02:06.706Z,17.25
2018-09-17T21:04:35.443Z,17.18
2018-09-17T21:07:04.470Z,17.11
2018-09-17T21:09:33.801Z,17.06
2018-09-17T21:12:03.141Z,17.01
2018-09-17T21:14:32.172Z,16.97
2018-09-17T21:17:02.604Z,16.93
2018-09-17T21:19:33.152Z,16.87
2018-09-17T21:22:04.284Z,16.82
2018-09-17T21:24:35.525Z,16.77
2018-09-17T21:27:06.660Z,16.72
2018-09-17T21:29:37.904Z,16.68
2018-09-17T21:32:08.660Z,16.63
2018-09-17T21:34:39.590Z,16.58
2018-09-17T21:37:10.725Z,16.54
2018-09-17T21:39:41.349Z,16.50
2018-09-17T21:42:11.337Z,16.46
2018-09-17T21:44:41.602Z,16.42
2018-09-17T21:47:11.737Z,16.40
2018-09-17T21:49:40.807Z,16.37
2018-09-17T21:52:10.086Z,16.33
2018-09-17T21:54:39.378Z,16.30
2018-09-17T21:57:08.164Z,16.27
2018-09-17T21:59:37.492Z,16.23
2018-09-17T22:02:06.540Z,16.21
2018-09-17T22:04:35.952Z,16.16
2018-09-17T22:07:04.743Z,16.12
2018-09-17T22:09:33.468Z,16.10
2018-09-17T22:12:02.433Z,16.05
2018-09-17T22:14:31.520Z,16.04
2018-09-17T22:17:00.240Z,16.03
2018-09-17T22:19:29.222Z,15.99
2018-09-17T22:21:58.266Z,15.97
2018-09-17T22:24:27.294Z,15.94
2018-09-17T22:26:56.304Z,15.93
2018-09-17T22:29:25.106Z,15.91
2018-09-17T22:31:54.419Z,15.91
2018-09-17T22:34:23.410Z,15.90
2018-09-17T22:36:52.162Z,15.89
2018-09-17T22:39:21.553Z,15.86
2018-09-17T22:41:50.689Z,15.83
2018-09-17T22:44:19.697Z,15.81
2018-09-17T22:46:48.518Z,15.79
2018-09-17T22:49:17.239Z,15.78
2018-09-17T22:51:46.253Z,15.78
2018-09-17T22:54:15.271Z,15.77
2018-09-17T22:56:43.999Z,15.76
2018-09-17T22:59:13.055Z,15.77
2018-09-17T23:01:41.792Z,15.78
2018-09-17T23:04:10.759Z,15.78
2018-09-17T23:06:39.825Z,15.78
2018-09-17T23:09:11.136Z,15.75
2018-09-17T23:11:40.122Z,15.74
2018-09-17T23:14:08.885Z,15.69
2018-09-17T23:16:38.190Z,15.67
2018-09-17T23:19:07.646Z,15.62
2018-09-17T23:21:37.235Z,15.60
2018-09-17T23:24:06.888Z,15.57
2018-09-17T23:26:36.393Z,15.51
2018-09-17T23:29:05.140Z,15.46
2018-09-17T23:31:33.840Z,15.43
2018-09-17T23:34:02.630Z,15.41
2018-09-17T23:36:31.688Z,15.40
2018-09-17T23:39:00.514Z,15.41
2018-09-17T23:41:29.566Z,15.41
2018-09-17T23:43:58.618Z,15.40
2018-09-17T23:46:27.641Z,15.38
2018-09-17T23:48:56.936Z,15.37
2018-09-17T23:51:26.222Z,15.36
2018-09-17T23:53:54.990Z,15.38
2018-09-17T23:56:23.769Z,15.41
2018-09-17T23:58:52.837Z,15.43
